Time;durP1;ratioP1;P1;durP2;ratioP2;P2;SDS_P1;SDS_P2;PMS_P1;PMS_P2;Temp;Humidity;BMP_temperature;BMP_pressure;BME280_temperature;BME280_humidity;BME280_pressure;Samples;Min_cycle;Max_cycle;Signal;HPM_P1;HPM_P2
2022/09/10 00:01:50;;;;;;;14.05;10.57;;;14.90;99.90;;;;;;4968625;28;20045;-90
2022/09/10 00:04:19;;;;;;;16.60;10.07;;;15.00;99.90;;;;;;4966922;28;20042;-90
2022/09/10 00:06:45;;;;;;;12.32;10.15;;;15.00;99.90;;;;;;4999540;28;20042;-90
2022/09/10 00:09:11;;;;;;;17.05;11.63;;;15.00;99.90;;;;;;4964585;28;20050;-91
2022/09/10 00:11:39;;;;;;;13.60;10.93;;;15.20;99.90;;;;;;4998330;28;20072;-93
2022/09/10 00:14:08;;;;;;;13.35;11.05;;;15.20;99.90;;;;;;4972539;28;20049;-92
2022/09/10 00:16:34;;;;;;;16.88;11.45;;;15.30;99.90;;;;;;4992969;28;20508;-92
2022/09/10 00:19:00;;;;;;;13.55;10.80;;;15.10;99.90;;;;;;4972116;28;20065;-92
2022/09/10 00:21:28;;;;;;;14.90;11.35;;;15.40;99.90;;;;;;4969123;28;20042;-92
2022/09/10 00:23:55;;;;;;;17.80;11.57;;;15.20;99.90;;;;;;4968823;28;20034;-90
2022/09/10 00:26:36;;;;;;;17.17;12.52;;;15.40;99.90;;;;;;5002321;28;20076;-91
2022/09/10 00:29:04;;;;;;;18.13;12.15;;;15.40;99.90;;;;;;4996203;28;20050;-91
2022/09/10 00:31:31;;;;;;;14.82;12.07;;;15.30;99.90;;;;;;4972653;28;20076;-91
2022/09/10 00:34:01;;;;;;;13.55;11.02;;;15.20;99.90;;;;;;4994175;28;20221;-91
2022/09/10 00:36:34;;;;;;;15.10;10.70;;;15.20;99.90;;;;;;4993801;28;20169;-93
2022/09/10 00:39:03;;;;;;;12.13;10.43;;;15.20;99.90;;;;;;4965017;28;20153;-90
2022/09/10 00:41:30;;;;;;;14.35;11.50;;;15.30;99.90;;;;;;4997335;28;20486;-93
2022/09/10 00:43:58;;;;;;;17.08;11.70;;;15.20;99.90;;;;;;4988378;28;20042;-91
2022/09/10 00:46:29;;;;;;;19.73;11.98;;;15.30;99.90;;;;;;4973571;28;20042;-92
2022/09/10 00:48:58;;;;;;;16.05;12.13;;;15.40;99.90;;;;;;4972165;28;20057;-93
2022/09/10 00:51:29;;;;;;;15.93;12.07;;;15.30;99.90;;;;;;4962920;28;20043;-92
2022/09/10 00:53:57;;;;;;;19.15;13.63;;;15.40;99.90;;;;;;4991375;28;20035;-93
2022/09/10 00:56:23;;;;;;;16.00;13.38;;;15.40;99.90;;;;;;4972377;28;20449;-91
2022/09/10 00:58:52;;;;;;;14.38;12.75;;;15.50;99.90;;;;;;4984738;28;20035;-91
2022/09/10 01:01:18;;;;;;;16.75;13.05;;;15.30;99.90;;;;;;4972925;28;20502;-90
2022/09/10 01:03:45;;;;;;;19.58;13.23;;;15.40;99.90;;;;;;4964634;28;20442;-92
2022/09/10 01:06:11;;;;;;;15.98;12.57;;;15.30;99.90;;;;;;4966651;28;20185;-92
2022/09/10 01:08:37;;;;;;;19.13;13.48;;;15.30;99.90;;;;;;4995661;28;20042;-93
2022/09/10 01:11:10;;;;;;;18.27;13.43;;;15.40;99.90;;;;;;4969768;28;20096;-93
2022/09/10 01:13:54;;;;;;;17.52;13.15;;;15.50;99.90;;;;;;4981724;28;20125;-93
2022/09/10 01:16:39;;;;;;;17.98;13.40;;;15.50;99.90;;;;;;4971712;28;20462;-93
2022/09/10 01:19:46;;;;;;;17.25;13.30;;;15.50;99.90;;;;;;4991351;28;20072;-93
2022/09/10 01:22:37;;;;;;;20.33;13.25;;;15.50;99.90;;;;;;4962477;28;20154;-92
2022/09/10 01:25:30;;;;;;;17.42;14.05;;;15.50;99.90;;;;;;4992728;28;20059;-94
2022/09/10 01:28:04;;;;;;;19.42;14.50;;;15.50;99.90;;;;;;4967499;28;20046;-91
2022/09/10 01:30:37;;;;;;;19.80;14.07;;;15.60;99.90;;;;;;4982812;28;20117;-92
2022/09/10 01:33:11;;;;;;;17.70;14.73;;;15.50;99.90;;;;;;4973440;28;20047;-91
2022/09/10 01:35:46;;;;;;;20.05;15.55;;;15.60;99.90;;;;;;4968562;28;20058;-92
2022/09/10 01:38:26;;;;;;;;;;;15.50;99.90;;;;;;4962828;28;20271;-92
2022/09/10 01:40:54;;;;;;;21.08;15.88;;;15.60;99.90;;;;;;4989964;28;20361;-92
2022/09/10 01:43:21;;;;;;;20.58;15.20;;;15.60;99.90;;;;;;4973237;28;20038;-92
2022/09/10 01:45:50;;;;;;;19.00;15.57;;;15.60;99.90;;;;;;4990874;28;20039;-94
2022/09/10 01:48:53;;;;;;;23.67;16.90;;;15.70;99.90;;;;;;4982753;28;20042;-92
2022/09/10 01:51:41;;;;;;;22.42;17.08;;;15.70;99.90;;;;;;4997056;28;20077;-92
2022/09/10 01:54:15;;;;;;;19.98;17.08;;;15.70;99.90;;;;;;4966707;28;20056;-91
2022/09/10 01:57:00;;;;;;;18.85;15.50;;;15.70;99.90;;;;;;4965307;28;20043;-92
2022/09/10 02:00:05;;;;;;;21.13;16.90;;;15.70;99.90;;;;;;4968866;28;20506;-93
2022/09/10 02:03:00;;;;;;;20.10;15.10;;;15.70;99.90;;;;;;4989199;28;20053;-91
2022/09/10 02:05:28;;;;;;;23.80;16.40;;;15.70;99.90;;;;;;4958217;28;20566;-92
2022/09/10 02:08:02;;;;;;;23.75;16.95;;;15.70;99.90;;;;;;4957801;28;20042;-91
2022/09/10 02:10:27;;;;;;;23.73;16.85;;;15.60;99.90;;;;;;4964046;28;20094;-92
2022/09/10 02:12:54;;;;;;;20.02;16.77;;;15.60;99.90;;;;;;4973302;28;20049;-93
2022/09/10 02:15:24;;;;;;;23.02;17.30;;;15.70;99.90;;;;;;4968541;28;20053;-92
2022/09/10 02:17:52;;;;;;;21.52;17.48;;;15.70;99.90;;;;;;4967945;28;20045;-92
2022/09/10 02:20:20;;;;;;;22.83;17.52;;;15.70;99.90;;;;;;4971564;28;20198;-92
2022/09/10 02:22:55;;;;;;;22.60;17.45;;;15.70;99.90;;;;;;4971216;28;20038;-93
2022/09/10 02:25:23;;;;;;;22.90;17.98;;;15.60;99.90;;;;;;4984515;28;20059;-95
2022/09/10 02:27:48;;;;;;;21.63;18.30;;;15.80;99.90;;;;;;4996285;28;20046;-93
2022/09/10 02:30:15;;;;;;;21.80;17.10;;;15.80;99.90;;;;;;4977271;28;20117;-92
2022/09/10 02:32:41;;;;;;;23.23;18.30;;;15.70;99.90;;;;;;5000372;28;20038;-92
2022/09/10 02:35:08;;;;;;;26.00;19.27;;;15.80;99.90;;;;;;4996355;28;20136;-92
2022/09/10 02:37:34;;;;;;;23.63;19.10;;;15.70;99.90;;;;;;4999440;28;20039;-91
2022/09/10 02:40:00;;;;;;;26.95;18.83;;;15.70;99.90;;;;;;5002761;28;20038;-92
2022/09/10 02:42:26;;;;;;;23.48;18.50;;;15.70;99.90;;;;;;4996933;28;20086;-92
2022/09/10 02:44:52;;;;;;;23.33;18.90;;;15.80;99.90;;;;;;4994884;28;20041;-93
2022/09/10 02:47:21;;;;;;;29.85;19.80;;;15.80;99.90;;;;;;4993841;28;20521;-93
2022/09/10 02:49:47;;;;;;;28.23;20.05;;;15.80;99.90;;;;;;4994260;28;20046;-91
2022/09/10 02:52:13;;;;;;;28.08;20.52;;;15.80;99.90;;;;;;4968789;28;20053;-93
2022/09/10 02:54:39;;;;;;;25.45;20.20;;;15.80;99.90;;;;;;4992339;28;20048;-93
2022/09/10 02:57:04;;;;;;;27.42;19.75;;;15.80;99.90;;;;;;4999558;28;20111;-92
2022/09/10 02:59:31;;;;;;;27.92;21.13;;;15.70;99.90;;;;;;4991779;28;20030;-92
2022/09/10 03:01:57;;;;;;;25.25;20.88;;;15.80;99.90;;;;;;4990432;28;20125;-91
2022/09/10 03:04:23;;;;;;;28.50;21.15;;;15.80;99.90;;;;;;4994805;28;20134;-92
2022/09/10 03:06:49;;;;;;;27.35;21.85;;;15.60;99.90;;;;;;4972317;28;20241;-93
2022/09/10 03:09:16;;;;;;;30.23;23.05;;;15.70;99.90;;;;;;4966053;28;20092;-92
2022/09/10 03:11:41;;;;;;;31.90;24.02;;;15.70;99.90;;;;;;4995020;28;20042;-91
2022/09/10 03:14:09;;;;;;;34.00;22.90;;;15.80;99.90;;;;;;4967480;28;20029;-91
2022/09/10 03:16:35;;;;;;;34.17;23.90;;;15.70;99.90;;;;;;4989981;28;20113;-91
2022/09/10 03:19:01;;;;;;;36.55;23.92;;;15.80;99.90;;;;;;4976095;28;20083;-92
2022/09/10 03:21:28;;;;;;;35.22;24.17;;;15.80;99.90;;;;;;4968203;28;20034;-91
2022/09/10 03:23:54;;;;;;;38.80;26.17;;;15.70;99.90;;;;;;4966629;28;20046;-91
2022/09/10 03:26:21;;;;;;;34.50;25.35;;;15.80;99.90;;;;;;4994157;28;20141;-92
2022/09/10 03:28:48;;;;;;;34.28;24.48;;;15.80;99.90;;;;;;4990841;28;20060;-93
2022/09/10 03:31:16;;;;;;;36.85;25.10;;;15.70;99.90;;;;;;4990715;28;20134;-92
2022/09/10 03:33:42;;;;;;;39.03;26.40;;;15.70;99.90;;;;;;4973757;28;20490;-93
2022/09/10 03:36:12;;;;;;;38.10;27.67;;;15.80;99.90;;;;;;4973348;28;20042;-91
2022/09/10 03:38:38;;;;;;;37.13;26.05;;;15.60;99.90;;;;;;4993439;28;20035;-91
2022/09/10 03:41:04;;;;;;;36.47;26.52;;;15.70;99.90;;;;;;4997923;28;20041;-92
2022/09/10 03:43:32;;;;;;;39.95;26.77;;;15.70;99.90;;;;;;4972706;28;20061;-93
2022/09/10 03:45:58;;;;;;;41.25;27.70;;;15.70;99.90;;;;;;4973281;28;20078;-91
2022/09/10 03:48:24;;;;;;;38.67;25.67;;;15.80;99.90;;;;;;4965390;28;20069;-91
2022/09/10 03:50:50;;;;;;;34.00;25.13;;;15.70;99.90;;;;;;4975653;28;20100;-89
2022/09/10 03:53:16;;;;;;;36.08;25.80;;;15.80;99.90;;;;;;4996426;28;20042;-91
2022/09/10 03:55:43;;;;;;;36.40;25.23;;;15.80;99.90;;;;;;4973058;28;20061;-91
2022/09/10 03:58:12;;;;;;;32.05;24.45;;;15.70;99.90;;;;;;4998972;28;20040;-91
2022/09/10 04:00:38;;;;;;;35.53;26.45;;;15.80;99.90;;;;;;4990742;28;20050;-91
2022/09/10 04:03:04;;;;;;;36.15;25.70;;;15.80;99.90;;;;;;4969746;28;20064;-92
2022/09/10 04:05:31;;;;;;;35.53;25.42;;;15.70;99.90;;;;;;4969956;28;20479;-92
2022/09/10 04:07:58;;;;;;;35.25;25.30;;;15.80;99.90;;;;;;4988831;28;20046;-92
2022/09/10 04:10:25;;;;;;;34.42;24.02;;;15.70;99.90;;;;;;4996847;28;20215;-90
2022/09/10 04:12:54;;;;;;;32.50;24.25;;;15.90;99.90;;;;;;4969691;28;20042;-91
2022/09/10 04:15:21;;;;;;;33.28;24.92;;;15.80;99.90;;;;;;4992138;28;20093;-92
2022/09/10 04:17:50;;;;;;;37.88;24.83;;;15.70;99.90;;;;;;5006571;28;20038;-91
2022/09/10 04:20:25;;;;;;;33.33;24.63;;;15.80;99.90;;;;;;4965123;28;20042;-92
2022/09/10 04:22:52;;;;;;;31.95;24.70;;;15.80;99.90;;;;;;4994812;28;20231;-92
2022/09/10 04:25:18;;;;;;;38.90;24.70;;;15.70;99.90;;;;;;4968332;28;20061;-91
2022/09/10 04:27:48;;;;;;;33.20;23.05;;;15.70;99.90;;;;;;4964444;28;20078;-91
2022/09/10 04:30:15;;;;;;;32.50;23.90;;;15.80;99.90;;;;;;4999295;28;22326;-90
2022/09/10 04:32:41;;;;;;;33.10;23.73;;;15.70;99.90;;;;;;4995664;28;20061;-92
2022/09/10 04:35:07;;;;;;;30.25;23.00;;;15.70;99.90;;;;;;4994550;28;20082;-92
2022/09/10 04:37:33;;;;;;;35.00;23.55;;;15.70;99.90;;;;;;4961631;28;20035;-91
2022/09/10 04:39:59;;;;;;;32.33;22.42;;;15.60;99.90;;;;;;4965015;28;20454;-93
2022/09/10 04:42:30;;;;;;;29.58;21.67;;;15.60;99.90;;;;;;4995154;28;20045;-92
2022/09/10 04:44:59;;;;;;;27.67;20.48;;;15.60;99.90;;;;;;4972156;28;20042;-92
2022/09/10 04:47:25;;;;;;;29.33;20.88;;;15.70;99.90;;;;;;4959611;28;20041;-91
2022/09/10 04:49:51;;;;;;;30.23;21.23;;;15.60;99.90;;;;;;4990655;28;20045;-91
2022/09/10 04:52:16;;;;;;;29.25;22.30;;;15.60;99.90;;;;;;4990604;28;20087;-90
2022/09/10 04:54:42;;;;;;;27.42;20.27;;;15.50;99.90;;;;;;4971140;28;20046;-92
2022/09/10 04:57:08;;;;;;;31.05;21.75;;;15.70;99.90;;;;;;4968296;28;20417;-92
2022/09/10 04:59:34;;;;;;;31.30;21.10;;;15.70;99.90;;;;;;4971973;28;20042;-90
2022/09/10 05:02:00;;;;;;;30.40;21.15;;;15.50;99.90;;;;;;4970019;28;20038;-92
2022/09/10 05:04:26;;;;;;;29.30;21.65;;;15.70;99.90;;;;;;4965781;28;20165;-92
2022/09/10 05:06:52;;;;;;;32.75;21.92;;;15.60;99.90;;;;;;4964984;28;20112;-90
2022/09/10 05:09:19;;;;;;;28.80;21.42;;;15.60;99.90;;;;;;4990185;28;20132;-91
2022/09/10 05:11:48;;;;;;;26.42;20.70;;;15.70;99.90;;;;;;4961268;28;20073;-91
2022/09/10 05:14:15;;;;;;;30.38;22.42;;;15.70;99.90;;;;;;5001462;28;20483;-91
2022/09/10 05:16:40;;;;;;;25.13;20.23;;;15.80;99.90;;;;;;4967085;28;20045;-91
2022/09/10 05:19:06;;;;;;;24.98;20.25;;;15.70;99.90;;;;;;4995805;28;20046;-91
2022/09/10 05:21:35;;;;;;;29.13;20.40;;;15.90;99.90;;;;;;4967312;28;20053;-91
2022/09/10 05:24:01;;;;;;;26.02;20.20;;;15.90;99.90;;;;;;4965968;28;20182;-92
2022/09/10 05:26:27;;;;;;;25.48;19.48;;;15.80;99.90;;;;;;4998861;28;20755;-91
2022/09/10 05:28:53;;;;;;;28.17;20.52;;;15.90;99.90;;;;;;4967677;28;20038;-92
2022/09/10 05:31:19;;;;;;;28.67;20.77;;;15.80;99.90;;;;;;4974351;28;20478;-91
2022/09/10 05:33:45;;;;;;;27.42;20.38;;;15.90;99.90;;;;;;4988153;28;20039;-91
2022/09/10 05:36:11;;;;;;;30.60;20.52;;;15.90;99.90;;;;;;4994589;28;20042;-91
2022/09/10 05:38:38;;;;;;;28.55;19.58;;;15.80;99.90;;;;;;4993809;28;20039;-90
2022/09/10 05:41:07;;;;;;;26.75;20.05;;;15.80;99.90;;;;;;4993768;28;20142;-91
2022/09/10 05:43:33;;;;;;;27.20;19.42;;;15.80;99.90;;;;;;4966272;28;20507;-92
2022/09/10 05:45:58;;;;;;;27.90;20.13;;;16.00;99.90;;;;;;4993839;28;20423;-91
2022/09/10 05:48:24;;;;;;;26.55;19.52;;;15.90;99.90;;;;;;4993074;28;20531;-91
2022/09/10 05:50:50;;;;;;;30.08;18.60;;;15.80;99.90;;;;;;4969853;28;20046;-92
2022/09/10 05:53:16;;;;;;;28.63;20.48;;;15.90;99.90;;;;;;4981492;28;20047;-94
2022/09/10 05:55:43;;;;;;;27.13;19.95;;;16.00;99.90;;;;;;4993224;28;20045;-92
2022/09/10 05:58:12;;;;;;;26.73;19.50;;;16.00;99.90;;;;;;4965947;28;20513;-92
2022/09/10 06:00:38;;;;;;;24.45;18.50;;;16.10;99.90;;;;;;4970013;28;20112;-91
2022/09/10 06:03:04;;;;;;;30.10;19.55;;;16.00;99.90;;;;;;4997312;28;20037;-91
2022/09/10 06:05:30;;;;;;;23.77;18.38;;;16.20;99.90;;;;;;4996788;28;20041;-90
2022/09/10 06:07:56;;;;;;;24.65;19.02;;;16.10;99.90;;;;;;4970244;28;20117;-90
2022/09/10 06:10:22;;;;;;;24.35;17.67;;;16.10;99.90;;;;;;4972286;28;20085;-93
2022/09/10 06:12:50;;;;;;;27.45;18.17;;;16.20;99.90;;;;;;4975200;28;20461;-91
2022/09/10 06:15:17;;;;;;;25.85;17.92;;;16.30;99.90;;;;;;4988564;28;20038;-91
2022/09/10 06:17:43;;;;;;;25.33;18.60;;;16.10;99.90;;;;;;4974228;28;20062;-92
2022/09/10 06:20:11;;;;;;;27.95;18.88;;;16.20;99.90;;;;;;4994348;28;20107;-91
2022/09/10 06:22:38;;;;;;;27.48;19.15;;;16.20;99.90;;;;;;4969546;28;20564;-91
2022/09/10 06:25:05;;;;;;;29.73;19.05;;;16.20;99.90;;;;;;4972157;28;20101;-92
2022/09/10 06:27:31;;;;;;;31.98;19.73;;;16.20;99.90;;;;;;4968222;28;20164;-87
2022/09/10 06:29:57;;;;;;;26.08;19.73;;;16.20;99.90;;;;;;4991674;28;20510;-86
2022/09/10 06:32:23;;;;;;;27.70;19.40;;;16.30;99.90;;;;;;4981345;28;20042;-88
2022/09/10 06:34:49;;;;;;;30.88;20.65;;;16.20;99.90;;;;;;4966015;28;20592;-87
2022/09/10 06:37:15;;;;;;;29.20;19.88;;;16.30;99.90;;;;;;4993703;28;20034;-87
2022/09/10 06:39:41;;;;;;;30.02;21.27;;;16.20;99.90;;;;;;4990163;28;20529;-87
2022/09/10 06:42:06;;;;;;;33.75;20.55;;;16.10;99.90;;;;;;4975835;28;20111;-87
2022/09/10 06:44:32;;;;;;;29.02;20.13;;;16.30;99.90;;;;;;4982676;28;20050;-87
2022/09/10 06:47:01;;;;;;;30.35;20.15;;;16.30;99.90;;;;;;4961762;28;20065;-87
2022/09/10 06:49:28;;;;;;;33.17;20.73;;;16.20;99.90;;;;;;5004205;28;20066;-87
2022/09/10 06:51:54;;;;;;;36.90;21.33;;;16.30;99.90;;;;;;4981484;28;20233;-87
2022/09/10 06:54:19;;;;;;;37.17;21.15;;;16.30;99.90;;;;;;4987141;28;20049;-86
2022/09/10 06:56:47;;;;;;;28.73;21.13;;;16.40;99.90;;;;;;4967232;28;20042;-86
2022/09/10 06:59:15;;;;;;;35.95;20.88;;;16.60;99.90;;;;;;4982420;28;20260;-86
2022/09/10 07:01:41;;;;;;;30.17;21.10;;;16.50;99.90;;;;;;4992275;28;20410;-87
2022/09/10 07:04:08;;;;;;;33.83;21.58;;;16.60;99.90;;;;;;4971496;28;20046;-86
2022/09/10 07:06:35;;;;;;;32.80;21.63;;;16.60;99.90;;;;;;4978551;28;20221;-87
2022/09/10 07:09:01;;;;;;;30.02;21.08;;;16.70;99.90;;;;;;4966964;28;20220;-86
2022/09/10 07:11:29;;;;;;;36.85;21.83;;;16.60;99.90;;;;;;4977497;28;20050;-87
2022/09/10 07:13:55;;;;;;;32.67;20.38;;;16.60;99.90;;;;;;4992803;28;20052;-87
2022/09/10 07:16:22;;;;;;;37.00;21.17;;;16.70;99.90;;;;;;4974292;28;20031;-87
2022/09/10 07:18:49;;;;;;;32.85;21.15;;;16.70;99.90;;;;;;4987193;28;20474;-87
2022/09/10 07:21:17;;;;;;;33.35;20.63;;;16.90;99.90;;;;;;4979518;28;20074;-87
2022/09/10 07:23:43;;;;;;;36.35;22.00;;;16.90;99.90;;;;;;4971350;28;20489;-87
2022/09/10 07:26:12;;;;;;;35.30;20.42;;;17.00;99.90;;;;;;4959726;28;20046;-87
2022/09/10 07:28:39;;;;;;;36.85;22.15;;;17.00;99.90;;;;;;4998720;28;20064;-87
2022/09/10 07:31:16;;;;;;;32.90;20.85;;;16.90;99.90;;;;;;5004222;28;20138;-86
2022/09/10 07:33:42;;;;;;;39.13;22.20;;;16.90;99.90;;;;;;4979019;28;20447;-87
2022/09/10 07:36:08;;;;;;;38.55;22.38;;;16.70;99.90;;;;;;4983365;28;20137;-87
2022/09/10 07:38:35;;;;;;;34.53;21.88;;;16.70;99.90;;;;;;5003182;28;20116;-87
2022/09/10 07:41:02;;;;;;;32.72;21.38;;;17.10;99.90;;;;;;5007786;28;20034;-86
2022/09/10 07:43:28;;;;;;;33.58;20.63;;;17.20;99.90;;;;;;4975198;28;20476;-86
2022/09/10 07:45:57;;;;;;;37.42;21.80;;;17.20;99.90;;;;;;4982750;28;20074;-87
2022/09/10 07:48:24;;;;;;;37.28;22.80;;;17.20;99.90;;;;;;4971637;28;20415;-86
2022/09/10 07:50:49;;;;;;;31.42;21.08;;;17.20;99.90;;;;;;4983974;28;20092;-87
2022/09/10 07:53:16;;;;;;;37.38;21.75;;;17.30;99.90;;;;;;4974519;28;20274;-87
2022/09/10 07:55:42;;;;;;;29.95;19.85;;;17.40;99.90;;;;;;4977419;28;20126;-87
2022/09/10 07:58:09;;;;;;;33.40;21.67;;;17.40;99.90;;;;;;5008270;28;20111;-87
2022/09/10 08:00:34;;;;;;;27.17;20.52;;;17.40;99.90;;;;;;4984005;28;20037;-87
2022/09/10 08:03:01;;;;;;;31.48;20.67;;;17.40;99.90;;;;;;5005050;28;20045;-87
2022/09/10 08:05:28;;;;;;;27.40;19.85;;;17.60;99.90;;;;;;5001217;28;20046;-87
2022/09/10 08:07:54;;;;;;;29.95;20.40;;;17.70;99.90;;;;;;4993377;28;20594;-93
2022/09/10 08:10:20;;;;;;;32.20;20.13;;;17.50;99.90;;;;;;4965955;28;20043;-92
2022/09/10 08:12:46;;;;;;;32.65;21.58;;;17.70;99.90;;;;;;4995034;28;20068;-91
2022/09/10 08:15:12;;;;;;;31.83;20.92;;;17.80;99.90;;;;;;4972699;28;20046;-92
2022/09/10 08:17:38;;;;;;;31.67;19.88;;;17.90;99.90;;;;;;4993030;28;20045;-91
2022/09/10 08:20:07;;;;;;;28.77;19.77;;;17.90;99.90;;;;;;4967540;28;20490;-90
2022/09/10 08:22:33;;;;;;;32.75;19.45;;;18.00;99.90;;;;;;4972974;28;20049;-92
2022/09/10 08:25:00;;;;;;;35.00;20.67;;;17.90;99.90;;;;;;4994992;28;20054;-92
2022/09/10 08:27:26;;;;;;;30.77;19.13;;;18.00;99.90;;;;;;4970654;28;20194;-93
2022/09/10 08:29:53;;;;;;;27.80;18.98;;;18.00;99.90;;;;;;4996843;28;20113;-92
2022/09/10 08:32:22;;;;;;;32.17;20.15;;;17.90;99.90;;;;;;4990182;28;20916;-94
2022/09/10 08:34:48;;;;;;;30.52;19.48;;;18.20;99.90;;;;;;4991469;28;20124;-91
2022/09/10 08:37:15;;;;;;;27.48;19.30;;;18.30;99.90;;;;;;4968949;28;20508;-93
2022/09/10 08:39:40;;;;;;;28.13;19.13;;;18.10;99.90;;;;;;4965910;28;20125;-91
2022/09/10 08:42:12;;;;;;;28.23;18.15;;;18.20;99.90;;;;;;4967525;28;20146;-91
2022/09/10 08:44:56;;;;;;;25.48;18.33;;;18.00;99.90;;;;;;4984621;28;20046;-87
2022/09/10 08:48:04;;;;;;;25.42;18.38;;;18.40;99.90;;;;;;5003304;28;20046;-87
2022/09/10 08:50:53;;;;;;;24.30;18.23;;;18.40;99.90;;;;;;4984813;28;20400;-86
2022/09/10 08:53:43;;;;;;;27.65;17.90;;;18.70;99.90;;;;;;4965712;28;20370;-87
2022/09/10 08:56:17;;;;;;;25.92;17.40;;;18.50;99.90;;;;;;4963237;28;20151;-87
2022/09/10 08:58:56;;;;;;;22.90;18.27;;;18.60;99.90;;;;;;4983618;28;20060;-87
2022/09/10 09:01:49;;;;;;;28.52;18.60;;;18.50;99.90;;;;;;4965849;28;20109;-87
2022/09/10 09:04:39;;;;;;;26.48;18.10;;;18.60;99.90;;;;;;4977736;28;20141;-86
2022/09/10 09:07:13;;;;;;;30.35;18.20;;;18.60;99.90;;;;;;4962945;28;20486;-92
2022/09/10 09:09:39;;;;;;;24.50;18.25;;;18.70;99.90;;;;;;4970105;28;20110;-93
2022/09/10 09:12:49;;;;;;;22.35;16.70;;;18.80;99.90;;;;;;4991344;28;20043;-92
2022/09/10 09:15:32;;;;;;;27.40;17.92;;;18.70;99.90;;;;;;4968379;28;20071;-92
2022/09/10 09:18:26;;;;;;;26.27;17.15;;;18.70;99.90;;;;;;4974633;28;20038;-93
2022/09/10 09:24:44;;;;;;;25.23;17.45;;;19.00;99.90;;;;;;4985332;28;20053;-91
2022/09/10 09:27:16;;;;;;;21.95;15.75;;;18.90;99.90;;;;;;4980596;28;20038;-91
2022/09/10 09:30:05;;;;;;;24.20;17.05;;;19.20;99.90;;;;;;4972774;28;20557;-92
2022/09/10 09:32:35;;;;;;;25.73;16.35;;;19.10;99.90;;;;;;4971444;28;20041;-93
2022/09/10 09:35:22;;;;;;;23.55;17.30;;;19.20;99.90;;;;;;4967537;28;20171;-92
2022/09/10 09:38:05;;;;;;;22.33;16.10;;;19.50;99.90;;;;;;4971638;28;20117;-93
2022/09/10 09:40:55;;;;;;;21.30;16.30;;;19.70;99.90;;;;;;4969332;28;20035;-95
2022/09/10 09:43:39;;;;;;;24.02;16.02;;;19.20;1.00;;;;;;4992667;28;20046;-93
2022/09/10 09:46:13;;;;;;;19.48;14.70;;;19.40;99.90;;;;;;4971475;28;20037;-93
2022/09/10 09:48:41;;;;;;;25.57;16.47;;;19.70;99.90;;;;;;4987466;28;20074;-93
2022/09/10 09:51:11;;;;;;;21.77;15.20;;;19.10;96.20;;;;;;4970823;28;20346;-93
2022/09/10 09:53:40;;;;;;;17.73;14.15;;;19.40;99.90;;;;;;4964518;28;20038;-93
2022/09/10 09:56:21;;;;;;;20.48;14.23;;;19.60;10.30;;;;;;4981682;28;20104;-93
2022/09/10 09:58:48;;;;;;;22.83;15.07;;;19.90;99.90;;;;;;4995595;28;20046;-93
2022/09/10 10:01:17;;;;;;;17.70;14.50;;;19.90;1.00;;;;;;4971813;28;20038;-93
2022/09/10 10:04:00;;;;;;;21.40;15.75;;;20.10;1.00;;;;;;4984484;28;20039;-93
2022/09/10 10:06:44;;;;;;;23.92;16.15;;;19.80;99.90;;;;;;4974980;28;20042;-94
2022/09/10 10:09:20;;;;;;;21.30;16.02;;;19.80;99.90;;;;;;4972682;28;20704;-92
2022/09/10 10:11:55;;;;;;;21.15;16.48;;;20.00;1.00;;;;;;5000787;28;20074;-94
2022/09/10 10:14:44;;;;;;;21.13;14.75;;;20.10;1.00;;;;;;4968503;28;20076;-95
2022/09/10 10:17:36;;;;;;;20.88;15.93;;;20.40;99.90;;;;;;4996769;28;20085;-93
2022/09/10 10:20:10;;;;;;;20.42;14.90;;;20.00;99.90;;;;;;4971712;28;20131;-92
2022/09/10 10:22:38;;;;;;;19.52;14.02;;;20.40;99.50;;;;;;4999575;28;20094;-93
2022/09/10 10:25:26;;;;;;;19.60;13.60;;;20.60;99.90;;;;;;4995979;28;20108;-94
2022/09/10 10:27:53;;;;;;;20.13;13.82;;;20.40;1.00;;;;;;4974160;28;20050;-94
2022/09/10 10:30:21;;;;;;;18.40;15.05;;;20.60;99.90;;;;;;4993189;28;20041;-93
2022/09/10 10:33:07;;;;;;;19.80;14.02;;;20.20;20.40;;;;;;4973618;28;20034;-96
2022/09/10 10:35:50;;;;;;;16.48;12.73;;;20.40;99.90;;;;;;4988146;28;20141;-94
2022/09/10 10:38:30;;;;;;;15.25;11.73;;;20.50;99.90;;;;;;4997300;28;20050;-93
2022/09/10 10:41:29;;;;;;;14.82;11.73;;;20.50;99.90;;;;;;5000114;28;20068;-95
2022/09/10 10:44:26;;;;;;;15.30;12.35;;;20.60;1.00;;;;;;4973897;28;20066;-94
2022/09/10 10:47:17;;;;;;;14.93;12.63;;;20.60;92.90;;;;;;5012545;28;20042;-94
2022/09/10 10:49:56;;;;;;;14.75;11.18;;;19.80;45.70;;;;;;4994089;28;20042;-94
2022/09/10 10:52:43;;;;;;;16.45;11.90;;;20.10;99.90;;;;;;4997473;28;20038;-94
2022/09/10 10:56:02;;;;;;;17.95;12.07;;;20.50;1.00;;;;;;4984241;28;20542;-94
2022/09/10 10:58:54;;;;;;;18.35;11.70;;;20.70;99.90;;;;;;4944783;28;20389;-94
2022/09/10 11:01:36;;;;;;;16.73;11.68;;;20.90;99.90;;;;;;4996794;28;20526;-94
2022/09/10 11:04:23;;;;;;;13.05;9.68;;;21.00;1.00;;;;;;4981134;28;20062;-93
2022/09/10 11:06:58;;;;;;;13.52;10.40;;;21.40;99.90;;;;;;5011336;28;20050;-94
2022/09/10 11:09:54;;;;;;;11.77;9.55;;;21.50;99.90;;;;;;4991686;28;20522;-96
2022/09/10 11:12:30;;;;;;;12.18;9.77;;;21.50;99.90;;;;;;4995012;28;20049;-93
2022/09/10 11:15:32;;;;;;;12.25;9.65;;;21.50;1.00;;;;;;4988946;28;20537;-94
2022/09/10 11:18:13;;;;;;;12.90;9.88;;;21.50;99.90;;;;;;4992903;28;20656;-93
2022/09/10 11:21:14;;;;;;;13.82;9.70;;;21.50;99.90;;;;;;4987410;28;20074;-94
2022/09/10 11:24:01;;;;;;;13.68;9.90;;;21.20;99.90;;;;;;4994111;28;20050;-94
2022/09/10 11:26:43;;;;;;;13.50;10.45;;;21.30;43.30;;;;;;4979928;28;20120;-94
2022/09/10 11:29:12;;;;;;;12.13;9.20;;;21.50;1.00;;;;;;4999040;28;20514;-93
2022/09/10 11:32:05;;;;;;;11.50;8.75;;;21.60;1.00;;;;;;4970958;28;20038;-95
2022/09/10 11:34:40;;;;;;;10.02;8.25;;;21.40;99.90;;;;;;4987342;28;20113;-94
2022/09/10 11:37:28;;;;;;;;;;;21.80;1.00;;;;;;5013509;28;20035;-94
2022/09/10 11:39:57;;;;;;;11.60;8.57;;;21.10;99.90;;;;;;4985957;28;20480;-94
2022/09/10 11:42:40;;;;;;;13.05;9.05;;;20.60;99.90;;;;;;4976298;28;20034;-92
2022/09/10 11:45:27;;;;;;;12.18;9.65;;;20.90;1.00;;;;;;4973233;28;20034;-93
2022/09/10 11:48:04;;;;;;;10.30;8.52;;;20.50;99.90;;;;;;4970111;28;20072;-93
2022/09/10 11:50:45;;;;;;;11.45;8.65;;;21.20;1.00;;;;;;4966412;28;20061;-94
2022/09/10 11:53:20;;;;;;;8.82;7.78;;;21.50;99.90;;;;;;4971987;28;20133;-94
2022/09/10 11:56:24;;;;;;;8.20;7.38;;;22.20;99.90;;;;;;4983770;28;20035;-93
2022/09/10 11:59:15;;;;;;;10.77;6.75;;;21.90;99.90;;;;;;5012384;28;20378;-92
2022/09/10 12:02:19;;;;;;;9.13;6.72;;;21.00;95.90;;;;;;4994033;28;20073;-93
2022/09/10 12:04:57;;;;;;;6.55;5.78;;;21.30;99.90;;;;;;4991877;28;20074;-94
2022/09/10 12:07:48;;;;;;;7.03;6.05;;;22.10;1.00;;;;;;4971155;28;20117;-93
2022/09/10 12:10:30;;;;;;;8.77;6.13;;;22.20;99.90;;;;;;4970237;28;20483;-92
2022/09/10 12:12:57;;;;;;;7.72;6.18;;;22.60;1.00;;;;;;4962441;28;20069;-92
2022/09/10 12:15:25;;;;;;;7.22;6.47;;;23.20;99.90;;;;;;4970517;28;20038;-93
2022/09/10 12:18:05;;;;;;;8.73;5.93;;;23.30;1.00;;;;;;4968022;28;20101;-93
2022/09/10 12:20:45;;;;;;;7.00;5.22;;;23.50;1.00;;;;;;4969982;28;20065;-94
2022/09/10 12:23:25;;;;;;;7.82;6.07;;;23.60;99.90;;;;;;4983912;28;20232;-94
2022/09/10 12:26:10;;;;;;;8.90;6.80;;;23.60;99.90;;;;;;4965661;28;20679;-95
2022/09/10 12:28:42;;;;;;;6.93;5.90;;;23.20;99.90;;;;;;4972709;28;20061;-95
2022/09/10 12:31:11;;;;;;;6.93;5.57;;;23.00;99.90;;;;;;4969876;28;20108;-93
2022/09/10 12:33:42;;;;;;;8.93;6.80;;;22.80;99.90;;;;;;4963425;28;20467;-93
2022/09/10 12:36:34;;;;;;;9.38;6.43;;;21.60;99.90;;;;;;4966669;28;20116;-93
2022/09/10 12:39:18;;;;;;;12.32;7.43;;;22.10;99.90;;;;;;4989205;28;20050;-93
2022/09/10 12:41:44;;;;;;;10.52;7.70;;;21.70;99.90;;;;;;5005680;28;20039;-93
2022/09/10 12:44:33;;;;;;;9.75;7.63;;;21.20;1.00;;;;;;4972967;28;20042;-93
2022/09/10 12:47:14;;;;;;;10.20;7.57;;;21.00;99.90;;;;;;4968319;28;20152;-93
2022/09/10 12:49:49;;;;;;;9.20;7.03;;;20.70;79.20;;;;;;4969609;28;20455;-91
2022/09/10 12:52:33;;;;;;;12.18;7.50;;;21.20;1.00;;;;;;4960731;28;20034;-93
2022/09/10 12:55:30;;;;;;;20.00;14.38;;;21.30;65.50;;;;;;4974240;28;20146;-92
2022/09/10 12:58:30;;;;;;;15.57;8.93;;;21.50;99.90;;;;;;4964258;28;20038;-93
2022/09/10 13:00:56;;;;;;;10.63;7.28;;;22.10;1.00;;;;;;4994592;28;20050;-93
2022/09/10 13:03:28;;;;;;;9.85;7.03;;;23.00;99.90;;;;;;4960939;28;20034;-93